createdAt,value
2018-07-28T00:01:17.505Z,15.73
2018-07-28T00:03:45.910Z,14.37
2018-07-28T00:06:14.309Z,16.93
2018-07-28T00:08:42.705Z,18.07
2018-07-28T00:11:11.099Z,18.80
2018-07-28T00:13:39.503Z,18.17
2018-07-28T00:16:07.918Z,19.37
2018-07-28T00:18:36.309Z,19.30
2018-07-28T00:21:04.752Z,19.57
2018-07-28T00:23:33.171Z,19.83
2018-07-28T00:26:06.793Z,19.50
2018-07-28T00:28:35.201Z,19.50
2018-07-28T00:31:04.257Z,21.67
2018-07-28T00:33:32.669Z,21.03
2018-07-28T00:36:01.075Z,24.43
2018-07-28T00:38:29.467Z,22.03
2018-07-28T00:40:57.861Z,22.50
2018-07-28T00:43:26.257Z,25.43
2018-07-28T00:45:54.657Z,25.83
2018-07-28T00:48:23.058Z,22.20
2018-07-28T00:50:51.457Z,20.97
2018-07-28T00:53:19.873Z,21.80
2018-07-28T00:55:48.278Z,21.90
2018-07-28T00:58:16.726Z,19.30
2018-07-28T01:00:45.993Z,21.17
2018-07-28T01:03:14.652Z,20.23
2018-07-28T01:05:44.174Z,21.33
2018-07-28T01:08:12.569Z,19.60
2018-07-28T01:10:41.328Z,19.93
2018-07-28T01:13:10.488Z,18.93
2018-07-28T01:15:38.886Z,20.33
2018-07-28T01:18:07.270Z,19.43
2018-07-28T01:20:35.932Z,16.50
2018-07-28T01:23:04.314Z,18.93
2018-07-28T01:25:33.407Z,21.07
2018-07-28T01:28:01.837Z,17.37
2018-07-28T01:30:32.563Z,18.20
2018-07-28T01:33:02.083Z,21.80
2018-07-28T01:35:30.492Z,18.07
2018-07-28T01:37:59.343Z,20.13
2018-07-28T01:40:28.019Z,19.40
2018-07-28T01:42:56.426Z,19.20
2018-07-28T01:45:24.817Z,20.10
2018-07-28T01:47:53.213Z,19.80
2018-07-28T01:50:22.326Z,18.90
2018-07-28T01:52:50.721Z,18.90
2018-07-28T01:55:19.119Z,17.80
2018-07-28T01:57:47.772Z,17.57
2018-07-28T02:00:16.185Z,19.43
2018-07-28T02:02:44.585Z,17.73
2018-07-28T02:05:13.533Z,17.87
2018-07-28T02:07:41.922Z,18.60
2018-07-28T02:10:11.470Z,18.00
2018-07-28T02:12:39.896Z,17.33
2018-07-28T02:15:08.946Z,16.97
2018-07-28T02:17:37.338Z,15.97
2018-07-28T02:20:07.325Z,16.60
2018-07-28T02:22:35.730Z,16.30
2018-07-28T02:25:05.766Z,20.97
2018-07-28T02:27:34.148Z,23.53
2018-07-28T02:30:02.556Z,29.33
2018-07-28T02:32:31.244Z,32.47
2018-07-28T02:34:59.875Z,32.00
2018-07-28T02:37:28.301Z,31.20
2018-07-28T02:39:56.702Z,27.93
2018-07-28T02:42:25.118Z,28.40
2018-07-28T02:44:53.655Z,27.87
2018-07-28T02:47:22.054Z,32.63
2018-07-28T02:49:50.463Z,28.30
2018-07-28T02:52:18.638Z,29.00
2018-07-28T02:54:47.061Z,30.33
2018-07-28T02:57:15.473Z,28.00
2018-07-28T02:59:43.877Z,26.90
2018-07-28T03:02:12.047Z,30.87
2018-07-28T03:04:40.461Z,31.53
2018-07-28T03:07:08.877Z,30.47
2018-07-28T03:09:37.280Z,29.10
2018-07-28T03:12:06.436Z,34.07
2018-07-28T03:14:34.842Z,32.20
2018-07-28T03:17:03.410Z,31.83
2018-07-28T03:19:31.817Z,33.60
2018-07-28T03:22:00.253Z,35.30
2018-07-28T03:24:28.651Z,36.47
2018-07-28T03:26:57.045Z,35.93
2018-07-28T03:29:25.807Z,33.37
2018-07-28T03:31:54.204Z,34.70
2018-07-28T03:34:23.275Z,34.30
2018-07-28T03:36:51.675Z,31.53
2018-07-28T03:39:20.077Z,31.70
2018-07-28T03:41:48.464Z,32.10
2018-07-28T03:44:16.854Z,34.53
2018-07-28T03:46:45.263Z,28.77
2018-07-28T03:49:13.739Z,24.87
2018-07-28T03:51:42.110Z,22.90
2018-07-28T03:54:10.510Z,21.90
2018-07-28T03:56:39.762Z,23.30
2018-07-28T03:59:08.779Z,24.20
2018-07-28T04:01:37.212Z,30.73
2018-07-28T04:04:06.656Z,23.13
2018-07-28T04:06:35.050Z,26.23
2018-07-28T04:09:06.140Z,23.67
2018-07-28T04:11:34.536Z,25.43
2018-07-28T04:14:03.225Z,24.97
2018-07-28T04:16:32.104Z,27.90
2018-07-28T04:19:00.580Z,29.00
2018-07-28T04:21:29.256Z,29.67
2018-07-28T04:23:57.658Z,30.00
2018-07-28T04:26:26.060Z,32.53
2018-07-28T04:28:54.470Z,34.10
2018-07-28T04:31:22.889Z,31.27
2018-07-28T04:33:51.286Z,32.87
2018-07-28T04:36:19.692Z,30.53
2018-07-28T04:38:48.410Z,31.13
2018-07-28T04:41:16.804Z,28.17
2018-07-28T04:43:45.375Z,29.17
2018-07-28T04:46:13.778Z,29.77
2018-07-28T04:48:42.216Z,29.73
2018-07-28T04:51:10.643Z,29.40
2018-07-28T04:53:39.052Z,27.17
2018-07-28T04:56:08.452Z,29.07
2018-07-28T04:58:36.849Z,26.37
2018-07-28T05:01:05.275Z,27.77
2018-07-28T05:03:33.682Z,28.20
2018-07-28T05:06:02.081Z,28.73
2018-07-28T05:08:30.484Z,29.90
2018-07-28T05:10:58.883Z,28.90
2018-07-28T05:13:27.283Z,28.77
2018-07-28T05:15:56.774Z,26.70
2018-07-28T05:18:25.143Z,29.70
2018-07-28T05:20:54.005Z,28.77
2018-07-28T05:23:22.541Z,26.77
2018-07-28T05:25:50.949Z,29.77
2018-07-28T05:28:19.358Z,27.70
2018-07-28T05:30:47.785Z,28.13
2018-07-28T05:33:16.193Z,28.30
2018-07-28T05:35:44.598Z,29.93
2018-07-28T05:38:13.009Z,29.93
2018-07-28T05:40:41.634Z,29.87
2018-07-28T05:43:10.106Z,28.07
2018-07-28T05:45:39.632Z,32.23
2018-07-28T05:48:08.035Z,31.90
2018-07-28T05:50:36.454Z,30.37
2018-07-28T05:53:05.422Z,33.53
2018-07-28T05:55:33.846Z,33.80
2018-07-28T05:58:02.382Z,34.03
2018-07-28T06:00:30.811Z,36.13
2018-07-28T06:03:03.649Z,37.77
2018-07-28T06:05:32.511Z,38.27
2018-07-28T06:08:00.930Z,38.17
2018-07-28T06:10:29.439Z,31.87
2018-07-28T06:12:57.833Z,32.23
2018-07-28T06:15:26.267Z,32.40
2018-07-28T06:17:55.996Z,28.77
2018-07-28T06:20:24.482Z,28.40
2018-07-28T06:22:52.918Z,27.03
2018-07-28T06:25:22.241Z,27.37
2018-07-28T06:27:50.648Z,25.00
2018-07-28T06:30:19.083Z,12.87
2018-07-28T06:32:47.498Z,12.20
2018-07-28T06:35:16.286Z,17.47
2018-07-28T06:37:44.742Z,15.20
2018-07-28T06:40:13.149Z,14.60
2018-07-28T06:42:41.735Z,12.97
2018-07-28T06:45:10.425Z,18.87
2018-07-28T06:47:38.846Z,16.40
2018-07-28T06:50:07.312Z,15.20
2018-07-28T06:52:35.733Z,12.87
2018-07-28T06:55:04.260Z,12.10
2018-07-28T06:57:32.688Z,14.27
2018-07-28T07:00:01.105Z,12.50
2018-07-28T07:02:29.583Z,13.10
2018-07-28T07:04:57.995Z,13.10
2018-07-28T07:07:26.405Z,12.13
2018-07-28T07:09:54.823Z,12.00
2018-07-28T07:12:23.232Z,14.40
2018-07-28T07:14:51.913Z,16.33
2018-07-28T07:17:20.499Z,15.73
2018-07-28T07:19:48.927Z,14.90
2018-07-28T07:22:17.469Z,17.23
2018-07-28T07:24:46.625Z,17.70
2018-07-28T07:27:15.154Z,14.80
2018-07-28T07:29:43.643Z,15.03
2018-07-28T07:32:12.279Z,16.87
2018-07-28T07:34:40.743Z,19.80
2018-07-28T07:37:09.159Z,26.67
2018-07-28T07:39:37.830Z,23.07
2018-07-28T07:42:06.260Z,23.17
2018-07-28T07:44:34.809Z,21.70
2018-07-28T07:47:03.278Z,21.83
2018-07-28T07:49:31.762Z,16.60
2018-07-28T07:54:19.482Z,17.20
2018-07-28T07:56:48.050Z,14.77
2018-07-28T07:59:16.465Z,15.87
2018-07-28T08:01:45.328Z,13.83
2018-07-28T08:04:13.753Z,13.03
2018-07-28T08:06:42.209Z,13.87
2018-07-28T08:09:10.619Z,12.03
2018-07-28T08:11:39.030Z,11.90
2018-07-28T08:14:08.569Z,13.10
2018-07-28T08:16:36.982Z,11.90
2018-07-28T08:19:05.837Z,12.57
2018-07-28T08:21:34.484Z,11.70
2018-07-28T08:24:02.931Z,10.40
2018-07-28T08:26:31.333Z,9.40
2018-07-28T08:28:59.841Z,11.13
2018-07-28T08:31:28.865Z,12.07
2018-07-28T08:33:57.458Z,10.97
2018-07-28T08:36:25.932Z,9.70
2018-07-28T08:38:54.436Z,10.57
2018-07-28T08:41:23.160Z,8.93
2018-07-28T08:43:51.564Z,9.27
2018-07-28T08:46:19.966Z,10.20
2018-07-28T08:48:48.418Z,9.83
2018-07-28T08:51:16.824Z,9.97
2018-07-28T08:53:45.243Z,9.33
2018-07-28T08:56:13.646Z,7.37
2018-07-28T08:58:42.064Z,7.30
2018-07-28T09:01:10.460Z,8.03
2018-07-28T09:03:38.854Z,9.23
2018-07-28T09:06:07.274Z,8.40
2018-07-28T09:08:35.696Z,5.80
2018-07-28T09:11:04.954Z,4.93
2018-07-28T09:13:33.428Z,5.43
2018-07-28T09:16:01.857Z,8.33
2018-07-28T09:18:30.259Z,4.47
2018-07-28T09:20:58.665Z,5.83
2018-07-28T09:23:28.066Z,8.13
2018-07-28T09:25:56.465Z,6.87
2018-07-28T09:28:24.878Z,4.83
2018-07-28T09:30:53.306Z,4.60
2018-07-28T09:33:21.682Z,5.93
2018-07-28T09:35:50.085Z,6.67
2018-07-28T09:38:18.487Z,5.37
2018-07-28T09:40:46.880Z,6.40
2018-07-28T09:43:15.283Z,4.80
2018-07-28T09:45:43.720Z,4.63
2018-07-28T09:48:12.112Z,4.43
2018-07-28T09:50:40.554Z,3.53
2018-07-28T09:53:08.950Z,7.50
2018-07-28T09:55:37.343Z,4.50
2018-07-28T09:58:05.757Z,7.40
2018-07-28T10:00:39.619Z,6.40
2018-07-28T10:03:08.011Z,7.60
2018-07-28T10:05:36.910Z,4.70
2018-07-28T10:08:05.229Z,9.33
2018-07-28T10:10:34.194Z,8.20
2018-07-28T10:13:02.589Z,7.87
2018-07-28T10:15:31.303Z,5.33
2018-07-28T10:18:00.311Z,7.73
2018-07-28T10:20:28.897Z,8.33
2018-07-28T10:22:57.554Z,8.40
2018-07-28T10:25:25.925Z,7.33
2018-07-28T10:27:54.333Z,6.27
2018-07-28T10:30:22.745Z,8.67
2018-07-28T10:32:51.147Z,6.43
2018-07-28T10:35:19.567Z,10.43
2018-07-28T10:37:48.427Z,9.87
2018-07-28T10:40:16.851Z,10.10
2018-07-28T10:42:45.237Z,9.60
2018-07-28T10:45:13.662Z,13.33
2018-07-28T10:47:42.072Z,10.37
2018-07-28T10:50:10.894Z,15.70
2018-07-28T10:52:39.292Z,13.50
2018-07-28T10:55:07.867Z,17.47
2018-07-28T10:57:36.260Z,13.37
2018-07-28T11:00:06.914Z,12.67
2018-07-28T11:02:35.271Z,17.03
2018-07-28T11:05:04.369Z,13.23
2018-07-28T11:07:32.839Z,15.53
2018-07-28T11:10:01.242Z,12.13
2018-07-28T11:12:29.658Z,12.60
2018-07-28T11:14:58.842Z,11.97
2018-07-28T11:17:27.233Z,16.87
2018-07-28T11:19:55.628Z,11.60
2018-07-28T11:22:24.276Z,14.63
2018-07-28T11:24:52.869Z,13.03
2018-07-28T11:27:21.512Z,10.63
2018-07-28T11:29:50.184Z,10.10
2018-07-28T11:32:30.001Z,13.63
2018-07-28T11:35:09.797Z,11.93
2018-07-28T11:38:01.119Z,6.30
2018-07-28T11:40:41.557Z,11.77
2018-07-28T11:43:21.153Z,10.20
2018-07-28T11:45:49.852Z,9.93
2018-07-28T11:48:18.281Z,8.60
2018-07-28T11:50:46.807Z,8.90
2018-07-28T11:53:15.317Z,10.43
2018-07-28T11:55:43.815Z,10.80
2018-07-28T11:58:12.397Z,7.07
2018-07-28T12:00:40.749Z,8.93
2018-07-28T12:03:09.149Z,17.00
2018-07-28T12:05:37.704Z,10.67
2018-07-28T12:08:06.569Z,10.33
2018-07-28T12:10:34.989Z,11.97
2018-07-28T12:13:03.385Z,8.50
2018-07-28T12:15:31.784Z,8.90
2018-07-28T12:18:00.175Z,8.23
2018-07-28T12:20:28.939Z,9.73
2018-07-28T12:22:57.349Z,10.23
2018-07-28T12:25:25.991Z,7.47
2018-07-28T12:27:54.441Z,13.30
2018-07-28T12:30:22.858Z,9.10
2018-07-28T12:32:51.260Z,8.47
2018-07-28T12:35:19.838Z,10.13
2018-07-28T12:37:48.235Z,11.27
2018-07-28T12:40:16.636Z,6.47
2018-07-28T12:42:45.948Z,8.23
2018-07-28T12:45:14.471Z,8.87
2018-07-28T12:47:42.942Z,6.97
2018-07-28T12:50:11.402Z,9.90
2018-07-28T12:52:39.810Z,6.47
2018-07-28T12:55:08.359Z,8.07
2018-07-28T12:57:36.738Z,7.93
2018-07-28T13:00:06.148Z,6.07
2018-07-28T13:02:34.530Z,9.87
2018-07-28T13:05:02.912Z,4.73
2018-07-28T13:07:31.306Z,7.80
2018-07-28T13:09:59.707Z,7.87
2018-07-28T13:12:28.154Z,12.43
2018-07-28T13:14:56.547Z,8.43
2018-07-28T13:17:25.396Z,9.67
2018-07-28T13:19:54.693Z,8.83
2018-07-28T13:22:23.197Z,9.47
2018-07-28T13:24:51.607Z,8.47
2018-07-28T13:27:20.064Z,8.43
2018-07-28T13:29:48.480Z,7.37
2018-07-28T13:32:16.887Z,9.37
2018-07-28T13:34:45.295Z,10.53
2018-07-28T13:37:13.810Z,9.10
2018-07-28T13:39:42.203Z,6.17
2018-07-28T13:42:11.046Z,9.50
2018-07-28T13:44:39.436Z,5.20
2018-07-28T13:47:08.490Z,5.37
2018-07-28T13:49:36.929Z,4.97
2018-07-28T13:52:05.316Z,6.90
2018-07-28T13:54:33.733Z,4.93
2018-07-28T13:57:02.193Z,5.50
2018-07-28T13:59:30.660Z,7.30
2018-07-28T14:01:59.101Z,5.80
2018-07-28T14:04:28.383Z,5.37
2018-07-28T14:06:56.777Z,7.03
2018-07-28T14:09:25.178Z,3.70
2018-07-28T14:11:53.570Z,6.60
2018-07-28T14:14:22.415Z,9.07
2018-07-28T14:16:50.848Z,6.43
2018-07-28T14:19:19.282Z,8.03
2018-07-28T14:21:47.678Z,6.57
2018-07-28T14:24:16.089Z,5.90
2018-07-28T14:26:44.489Z,6.77
2018-07-28T14:29:12.911Z,6.13
2018-07-28T14:31:41.004Z,8.57
2018-07-28T14:34:09.421Z,6.67
2018-07-28T14:36:37.836Z,4.13
2018-07-28T14:39:08.601Z,5.93
2018-07-28T14:41:37.073Z,6.90
2018-07-28T14:44:05.486Z,3.83
2018-07-28T14:46:33.883Z,9.97
2018-07-28T14:49:02.296Z,7.27
2018-07-28T14:51:30.710Z,5.90
2018-07-28T14:53:59.095Z,5.30
2018-07-28T14:56:27.486Z,6.53
2018-07-28T14:58:55.989Z,4.60
2018-07-28T15:01:24.426Z,4.83
2018-07-28T15:03:52.829Z,5.93
2018-07-28T15:06:21.291Z,6.03
2018-07-28T15:08:49.709Z,5.90
2018-07-28T15:11:18.121Z,6.77
2018-07-28T15:13:46.348Z,7.53
2018-07-28T15:16:14.804Z,5.20
2018-07-28T15:18:43.203Z,8.20
2018-07-28T15:21:11.620Z,9.43
2018-07-28T15:23:40.352Z,5.33
2018-07-28T15:26:08.769Z,3.97
2018-07-28T15:28:37.160Z,9.47
2018-07-28T15:31:05.563Z,5.40
2018-07-28T15:33:33.939Z,6.00
2018-07-28T15:36:02.114Z,6.67
2018-07-28T15:38:30.571Z,6.80
2018-07-28T15:40:59.329Z,5.80
2018-07-28T15:43:27.733Z,6.00
2018-07-28T15:45:56.117Z,6.53
2018-07-28T15:48:24.519Z,4.67
2018-07-28T15:50:53.048Z,7.17
2018-07-28T15:53:21.435Z,5.63
2018-07-28T15:55:49.817Z,5.23
2018-07-28T15:58:18.413Z,3.47
2018-07-28T16:00:46.905Z,7.73
2018-07-28T16:03:15.317Z,6.57
2018-07-28T16:05:43.989Z,4.37
2018-07-28T16:08:12.413Z,5.37
2018-07-28T16:10:40.805Z,3.10
2018-07-28T16:13:09.218Z,5.30
2018-07-28T16:15:37.741Z,6.50
2018-07-28T16:18:06.133Z,8.60
2018-07-28T16:20:34.538Z,3.90
2018-07-28T16:23:02.928Z,7.37
2018-07-28T16:25:31.328Z,4.10
2018-07-28T16:27:59.717Z,3.10
2018-07-28T16:30:28.328Z,4.40
2018-07-28T16:32:56.775Z,9.40
2018-07-28T16:35:25.164Z,7.37
2018-07-28T16:37:53.562Z,6.87
2018-07-28T16:40:22.126Z,6.73
2018-07-28T16:42:50.511Z,5.73
2018-07-28T16:45:18.962Z,3.70
2018-07-28T16:47:47.618Z,6.10
2018-07-28T16:50:16.019Z,7.50
2018-07-28T16:52:44.404Z,4.60
2018-07-28T16:55:12.820Z,6.63
2018-07-28T16:57:41.193Z,4.70
2018-07-28T17:00:09.579Z,6.17
2018-07-28T17:02:38.069Z,5.07
2018-07-28T17:05:06.584Z,4.90
2018-07-28T17:07:34.975Z,4.67
2018-07-28T17:10:03.400Z,5.30
2018-07-28T17:12:31.826Z,4.13
2018-07-28T17:15:00.239Z,6.53
2018-07-28T17:17:28.723Z,7.33
2018-07-28T17:19:57.917Z,6.63
2018-07-28T17:22:26.368Z,5.73
2018-07-28T17:24:54.719Z,7.17
2018-07-28T17:27:23.179Z,3.60
2018-07-28T17:29:52.259Z,4.23
2018-07-28T17:32:20.667Z,7.00
2018-07-28T17:34:49.321Z,6.70
2018-07-28T17:37:17.731Z,5.57
2018-07-28T17:39:46.567Z,6.67
2018-07-28T17:42:15.005Z,8.10
2018-07-28T17:44:43.803Z,7.17
2018-07-28T17:47:12.597Z,3.13
2018-07-28T17:49:40.993Z,6.40
2018-07-28T17:52:11.247Z,3.90
2018-07-28T17:54:40.093Z,5.57
2018-07-28T17:57:09.230Z,5.27
2018-07-28T17:59:37.668Z,7.27
2018-07-28T18:02:06.099Z,4.23
2018-07-28T18:04:34.847Z,5.03
2018-07-28T18:07:03.233Z,6.43
2018-07-28T18:09:31.643Z,4.30
2018-07-28T18:12:00.042Z,4.10
2018-07-28T18:14:28.473Z,5.27
2018-07-28T18:16:56.892Z,4.63
2018-07-28T18:19:25.327Z,4.20
2018-07-28T18:21:54.131Z,4.77
2018-07-28T18:24:22.744Z,4.30
2018-07-28T18:26:50.944Z,5.40
2018-07-28T18:29:19.531Z,7.47
2018-07-28T18:31:47.921Z,4.83
2018-07-28T18:34:16.852Z,4.93
2018-07-28T18:36:45.403Z,5.40
2018-07-28T18:39:13.941Z,5.50
2018-07-28T18:41:42.370Z,4.67
2018-07-28T18:44:10.785Z,6.83
2018-07-28T18:46:39.180Z,6.10
2018-07-28T18:49:07.710Z,5.67
2018-07-28T18:51:36.122Z,4.73
2018-07-28T18:54:04.537Z,6.17
2018-07-28T18:56:32.997Z,7.87
2018-07-28T18:59:01.377Z,6.23
2018-07-28T19:01:30.131Z,3.87
2018-07-28T19:03:58.597Z,3.50
2018-07-28T19:06:27.007Z,5.17
2018-07-28T19:09:00.721Z,6.70
2018-07-28T19:13:53.671Z,7.53
2018-07-28T19:16:22.115Z,5.87
2018-07-28T19:18:56.035Z,5.37
2018-07-28T19:21:25.809Z,3.83
2018-07-28T19:23:59.455Z,6.87
2018-07-28T19:26:28.086Z,6.17
2018-07-28T19:29:01.876Z,8.70
2018-07-28T19:31:30.985Z,6.27
2018-07-28T19:33:59.408Z,3.67
2018-07-28T19:36:33.150Z,5.60
2018-07-28T19:39:01.552Z,4.83
2018-07-28T19:41:34.184Z,6.27
2018-07-28T19:44:03.450Z,6.60
2018-07-28T19:46:32.089Z,5.30
2018-07-28T19:49:00.493Z,7.03
2018-07-28T19:51:28.908Z,6.80
2018-07-28T19:53:57.787Z,5.23
2018-07-28T19:56:26.190Z,3.90
2018-07-28T19:58:54.606Z,4.50
2018-07-28T20:01:23.030Z,4.10
2018-07-28T20:03:51.498Z,5.67
2018-07-28T20:06:20.420Z,5.10
2018-07-28T20:08:48.826Z,4.67
2018-07-28T20:11:17.367Z,4.63
2018-07-28T20:13:45.883Z,7.00
2018-07-28T20:16:14.498Z,5.90
2018-07-28T20:18:42.900Z,5.27
2018-07-28T20:21:11.318Z,5.97
2018-07-28T20:23:40.268Z,6.00
2018-07-28T20:26:08.865Z,3.33
2018-07-28T20:28:37.277Z,4.87
2018-07-28T20:31:05.708Z,7.30
2018-07-28T20:33:34.337Z,5.57
2018-07-28T20:36:02.739Z,5.87
2018-07-28T20:38:31.135Z,3.13
2018-07-28T20:40:59.550Z,5.80
2018-07-28T20:43:27.981Z,6.57
2018-07-28T20:45:56.145Z,7.20
2018-07-28T20:48:25.173Z,6.33
2018-07-28T20:50:53.643Z,4.23
2018-07-28T20:53:22.072Z,5.73
2018-07-28T20:55:50.495Z,7.33
2018-07-28T20:58:18.922Z,8.37
2018-07-28T21:00:47.338Z,4.60
2018-07-28T21:09:59.885Z,6.63
2018-07-28T21:12:29.122Z,13.23
2018-07-28T21:14:57.535Z,7.00
2018-07-28T21:17:26.569Z,5.87
2018-07-28T21:19:54.980Z,7.63
2018-07-28T21:22:23.406Z,5.03
2018-07-28T21:24:51.810Z,6.37
2018-07-28T21:27:20.202Z,4.63
2018-07-28T21:29:48.630Z,4.00
2018-07-28T21:32:17.008Z,4.43
2018-07-28T21:34:45.934Z,6.27
2018-07-28T21:37:14.334Z,9.27
2018-07-28T21:39:42.952Z,10.13
2018-07-28T21:42:11.357Z,9.53
2018-07-28T21:44:40.410Z,10.13
2018-07-28T21:47:09.230Z,8.03
2018-07-28T21:49:37.672Z,9.30
2018-07-28T21:52:06.663Z,9.43
2018-07-28T21:54:35.062Z,8.03
2018-07-28T21:57:03.852Z,9.20
2018-07-28T21:59:32.278Z,6.93
2018-07-28T22:02:00.695Z,6.00
2018-07-28T22:04:32.840Z,7.90
2018-07-28T22:07:01.770Z,11.10
2018-07-28T22:09:30.518Z,7.00
2018-07-28T22:12:15.871Z,11.30
2018-07-28T22:14:44.365Z,8.77
2018-07-28T22:17:12.914Z,6.17
2018-07-28T22:19:44.187Z,7.10
2018-07-28T22:22:12.836Z,7.87
2018-07-28T22:24:41.278Z,6.37
2018-07-28T22:27:09.832Z,10.53
2018-07-28T22:29:38.255Z,5.43
2018-07-28T22:32:06.671Z,6.07
2018-07-28T22:34:35.091Z,7.17
2018-07-28T22:37:03.526Z,5.93
2018-07-28T22:39:31.955Z,9.67
2018-07-28T22:42:00.755Z,7.77
2018-07-28T22:44:29.191Z,7.37
2018-07-28T22:46:57.589Z,5.37
2018-07-28T22:49:25.999Z,5.20
2018-07-28T22:51:54.403Z,3.90
2018-07-28T22:54:22.805Z,8.07
2018-07-28T22:56:51.217Z,4.30
2018-07-28T22:59:19.631Z,7.37
2018-07-28T23:01:48.024Z,5.23
2018-07-28T23:04:16.419Z,5.33
2018-07-28T23:06:44.817Z,7.53
2018-07-28T23:09:14.033Z,3.87
2018-07-28T23:11:42.438Z,5.20
2018-07-28T23:14:11.819Z,3.73
2018-07-28T23:16:40.224Z,8.13
2018-07-28T23:19:08.638Z,4.27
2018-07-28T23:21:37.051Z,4.77
2018-07-28T23:24:05.578Z,6.23
2018-07-28T23:26:33.978Z,5.73
2018-07-28T23:29:02.401Z,4.20
2018-07-28T23:31:30.797Z,6.27
2018-07-28T23:33:59.206Z,4.00
2018-07-28T23:36:27.621Z,4.77
2018-07-28T23:38:56.046Z,4.90
2018-07-28T23:41:24.468Z,8.47
2018-07-28T23:43:52.894Z,9.20
2018-07-28T23:46:21.298Z,5.90
2018-07-28T23:48:49.712Z,7.77
2018-07-28T23:51:18.110Z,6.10
2018-07-28T23:53:46.498Z,5.43
2018-07-28T23:56:14.918Z,6.10
2018-07-28T23:58:43.376Z,6.07
